createdAt,value
2024-04-09T00:00:40.036Z,51.11
2024-04-09T00:01:40.131Z,52.20
2024-04-09T00:02:40.247Z,51.85
2024-04-09T00:03:40.343Z,53.58
2024-04-09T00:04:40.364Z,53.90
2024-04-09T00:05:40.318Z,52.83
2024-04-09T00:06:40.433Z,50.61
2024-04-09T00:07:40.434Z,52.18
2024-04-09T00:08:40.485Z,51.01
2024-04-09T00:09:40.636Z,51.90
2024-04-09T00:10:40.592Z,51.78
2024-04-09T00:11:40.726Z,51.68
2024-04-09T00:12:40.796Z,52.52
2024-04-09T00:13:40.752Z,50.88
2024-04-09T00:14:40.827Z,51.69
2024-04-09T00:15:40.974Z,50.82
2024-04-09T00:16:40.917Z,50.70
2024-04-09T00:17:41.050Z,50.00
2024-04-09T00:18:41.136Z,52.33
2024-04-09T00:19:41.160Z,51.16
2024-04-09T00:20:41.163Z,53.16
2024-04-09T00:21:41.239Z,50.93
2024-04-09T00:22:41.311Z,52.54
2024-04-09T00:23:41.355Z,53.19
2024-04-09T00:24:41.483Z,54.15
2024-04-09T00:25:41.548Z,53.12
2024-04-09T00:26:41.666Z,53.27
2024-04-09T00:27:43.256Z,52.95
2024-04-09T00:28:41.778Z,52.44
2024-04-09T00:29:41.851Z,52.85
2024-04-09T00:30:41.876Z,52.08
2024-04-09T00:31:41.896Z,51.14
2024-04-09T00:32:42.083Z,51.71
2024-04-09T00:33:42.275Z,52.60
2024-04-09T00:34:42.114Z,52.55
2024-04-09T00:35:42.134Z,53.46
2024-04-09T00:36:42.454Z,51.67
2024-04-09T00:37:42.307Z,52.76
2024-04-09T00:38:42.380Z,50.60
2024-04-09T00:39:42.432Z,52.38
2024-04-09T00:40:42.497Z,54.13
2024-04-09T00:41:42.610Z,51.37
2024-04-09T00:42:42.687Z,52.60
2024-04-09T00:43:42.770Z,53.19
2024-04-09T00:44:42.824Z,52.66
2024-04-09T00:45:42.951Z,51.23
2024-04-09T00:46:43.003Z,52.39
2024-04-09T00:47:46.558Z,52.35
2024-04-09T00:48:43.343Z,52.35
2024-04-09T00:49:43.081Z,52.68
2024-04-09T00:50:43.090Z,52.33
2024-04-09T00:51:43.108Z,53.13
2024-04-09T00:52:43.093Z,54.26
2024-04-09T00:53:43.113Z,51.96
2024-04-09T00:54:43.100Z,53.30
2024-04-09T00:55:43.085Z,52.11
2024-04-09T00:56:43.084Z,52.30
2024-04-09T00:57:43.087Z,51.78
2024-04-09T00:58:43.095Z,52.44
2024-04-09T00:59:43.068Z,52.79
2024-04-09T01:00:43.155Z,53.01
2024-04-09T01:01:43.099Z,52.50
2024-04-09T01:02:43.175Z,52.92
2024-04-09T01:03:43.183Z,53.62
2024-04-09T01:04:43.194Z,54.96
2024-04-09T01:05:43.104Z,53.77
2024-04-09T01:06:43.114Z,54.24
2024-04-09T01:07:43.089Z,52.02
2024-04-09T01:08:43.150Z,53.09
2024-04-09T01:09:43.178Z,51.92
2024-04-09T01:10:43.213Z,52.17
2024-04-09T01:11:43.234Z,53.04
2024-04-09T01:12:43.302Z,52.56
2024-04-09T01:13:43.307Z,51.85
2024-04-09T01:14:43.380Z,52.24
2024-04-09T01:15:43.474Z,53.87
2024-04-09T01:16:43.443Z,54.28
2024-04-09T01:17:43.588Z,53.46
2024-04-09T01:18:43.769Z,53.46
2024-04-09T01:19:43.605Z,52.97
2024-04-09T01:20:43.677Z,52.89
2024-04-09T01:21:43.800Z,53.16
2024-04-09T01:22:43.829Z,52.61
2024-04-09T01:23:43.959Z,52.62
2024-04-09T01:24:44.100Z,53.67
2024-04-09T01:25:44.052Z,50.51
2024-04-09T01:26:44.115Z,51.84
2024-04-09T01:27:44.188Z,53.08
2024-04-09T01:28:44.249Z,52.50
2024-04-09T01:29:44.376Z,51.71
2024-04-09T01:30:44.489Z,54.32
2024-04-09T01:31:44.486Z,54.64
2024-04-09T01:32:44.630Z,50.91
2024-04-09T01:33:44.820Z,50.76
2024-04-09T01:34:44.728Z,52.77
2024-04-09T01:35:44.784Z,51.94
2024-04-09T01:36:44.858Z,51.97
2024-04-09T01:37:44.952Z,51.09
2024-04-09T01:38:45.013Z,51.24
2024-04-09T01:39:45.095Z,52.56
2024-04-09T01:40:45.159Z,52.22
2024-04-09T01:41:45.232Z,52.78
2024-04-09T01:42:45.300Z,51.38
2024-04-09T01:43:45.341Z,52.35
2024-04-09T01:44:45.417Z,52.32
2024-04-09T01:45:45.610Z,52.02
2024-04-09T01:46:45.541Z,50.60
2024-04-09T01:47:45.646Z,53.56
2024-04-09T01:48:45.864Z,53.28
2024-04-09T01:49:45.770Z,52.55
2024-04-09T01:50:45.850Z,54.61
2024-04-09T01:51:45.939Z,54.21
2024-04-09T01:52:46.012Z,51.37
2024-04-09T01:53:46.083Z,53.80
2024-04-09T01:54:46.138Z,55.79
2024-04-09T01:55:46.194Z,51.75
2024-04-09T01:56:46.249Z,53.43
2024-04-09T01:57:46.331Z,51.51
2024-04-09T01:58:46.308Z,50.11
2024-04-09T01:59:46.388Z,51.10
2024-04-09T02:00:46.649Z,54.81
2024-04-09T02:01:46.472Z,51.01
2024-04-09T02:02:46.551Z,51.53
2024-04-09T02:03:47.559Z,52.74
2024-04-09T02:04:46.773Z,53.04
2024-04-09T02:05:46.682Z,52.54
2024-04-09T02:06:46.722Z,52.48
2024-04-09T02:07:46.818Z,51.33
2024-04-09T02:08:46.932Z,52.30
2024-04-09T02:09:47.003Z,52.24
2024-04-09T02:10:47.033Z,51.23
2024-04-09T02:11:47.177Z,51.85
2024-04-09T02:12:47.302Z,51.92
2024-04-09T02:13:47.262Z,52.31
2024-04-09T02:14:47.340Z,51.60
2024-04-09T02:15:47.424Z,52.39
2024-04-09T02:16:47.525Z,52.57
2024-04-09T02:17:47.609Z,51.25
2024-04-09T02:18:47.675Z,51.58
2024-04-09T02:19:47.660Z,52.34
2024-04-09T02:20:47.723Z,51.23
2024-04-09T02:21:47.800Z,52.08
2024-04-09T02:22:47.795Z,52.01
2024-04-09T02:23:47.863Z,51.91
2024-04-09T02:24:47.957Z,52.14
2024-04-09T02:25:48.023Z,52.22
2024-04-09T02:26:48.065Z,54.86
2024-04-09T02:27:48.208Z,51.79
2024-04-09T02:28:48.189Z,53.25
2024-04-09T02:29:48.270Z,51.71
2024-04-09T02:30:48.360Z,54.66
2024-04-09T02:31:48.417Z,54.32
2024-04-09T02:32:48.498Z,50.00
2024-04-09T02:33:48.505Z,51.54
2024-04-09T02:34:48.505Z,54.68
2024-04-09T02:35:48.537Z,53.93
2024-04-09T02:36:48.597Z,51.22
2024-04-09T02:37:48.688Z,51.33
2024-04-09T02:38:48.722Z,53.51
2024-04-09T02:39:48.793Z,51.82
2024-04-09T02:40:48.836Z,51.78
2024-04-09T02:41:48.892Z,51.17
2024-04-09T02:42:48.924Z,53.66
2024-04-09T02:43:48.979Z,50.99
2024-04-09T02:44:49.043Z,52.31
2024-04-09T02:45:49.143Z,52.18
2024-04-09T02:46:49.153Z,53.75
2024-04-09T02:47:49.221Z,51.08
2024-04-09T02:48:49.289Z,51.42
2024-04-09T02:49:49.316Z,51.97
2024-04-09T02:50:49.360Z,54.27
2024-04-09T02:51:49.427Z,51.94
2024-04-09T02:52:49.495Z,53.35
2024-04-09T02:53:49.511Z,51.92
2024-04-09T02:54:49.590Z,53.10
2024-04-09T02:55:49.607Z,53.84
2024-04-09T02:56:49.667Z,51.59
2024-04-09T02:57:49.808Z,51.25
2024-04-09T02:58:49.762Z,52.29
2024-04-09T02:59:49.837Z,51.03
2024-04-09T03:00:50.103Z,52.87
2024-04-09T03:01:49.919Z,51.52
2024-04-09T03:02:50.086Z,50.80
2024-04-09T03:03:50.167Z,50.76
2024-04-09T03:04:50.161Z,53.73
2024-04-09T03:05:50.156Z,52.12
2024-04-09T03:06:50.338Z,55.01
2024-04-09T03:07:50.363Z,51.60
2024-04-09T03:08:50.454Z,51.77
2024-04-09T03:09:50.405Z,52.90
2024-04-09T03:10:50.520Z,50.97
2024-04-09T03:11:50.544Z,54.43
2024-04-09T03:12:50.663Z,52.17
2024-04-09T03:13:50.763Z,53.09
2024-04-09T03:14:50.682Z,50.97
2024-04-09T03:15:50.810Z,51.21
2024-04-09T03:16:50.822Z,52.65
2024-04-09T03:17:50.867Z,52.59
2024-04-09T03:18:50.961Z,53.28
2024-04-09T03:19:51.059Z,52.01
2024-04-09T03:20:50.960Z,52.39
2024-04-09T03:21:51.066Z,52.29
2024-04-09T03:22:51.058Z,52.58
2024-04-09T03:23:51.112Z,54.05
2024-04-09T03:24:51.145Z,51.44
2024-04-09T03:25:51.204Z,51.79
2024-04-09T03:26:51.235Z,52.27
2024-04-09T03:27:51.368Z,54.52
2024-04-09T03:28:51.320Z,53.10
2024-04-09T03:29:51.391Z,52.41
2024-04-09T03:30:51.425Z,50.52
2024-04-09T03:31:51.535Z,52.12
2024-04-09T03:32:51.649Z,52.57
2024-04-09T03:33:51.690Z,53.25
2024-04-09T03:34:51.613Z,52.35
2024-04-09T03:35:51.665Z,50.77
2024-04-09T03:36:51.749Z,53.32
2024-04-09T03:37:51.791Z,51.48
2024-04-09T03:38:51.794Z,53.34
2024-04-09T03:39:51.861Z,51.54
2024-04-09T03:40:51.919Z,52.85
2024-04-09T03:41:51.932Z,51.18
2024-04-09T03:42:52.035Z,52.64
2024-04-09T03:43:52.040Z,55.39
2024-04-09T03:44:52.074Z,51.09
2024-04-09T03:45:52.145Z,52.11
2024-04-09T03:46:52.147Z,52.32
2024-04-09T03:47:52.340Z,52.03
2024-04-09T03:48:52.476Z,52.98
2024-04-09T03:49:52.330Z,53.08
2024-04-09T03:50:52.408Z,50.98
2024-04-09T03:51:52.452Z,50.76
2024-04-09T03:52:52.508Z,53.66
2024-04-09T03:53:52.530Z,54.26
2024-04-09T03:54:52.579Z,51.26
2024-04-09T03:55:52.637Z,52.35
2024-04-09T03:56:52.696Z,52.03
2024-04-09T03:57:52.756Z,54.78
2024-04-09T03:58:52.810Z,53.24
2024-04-09T03:59:52.857Z,51.39
2024-04-09T04:00:52.956Z,52.43
2024-04-09T04:01:53.089Z,54.29
2024-04-09T04:02:53.041Z,53.01
2024-04-09T04:03:53.111Z,52.15
2024-04-09T04:04:53.074Z,53.33
2024-04-09T04:05:53.162Z,53.81
2024-04-09T04:06:53.173Z,51.97
2024-04-09T04:07:53.266Z,51.30
2024-04-09T04:08:53.280Z,52.38
2024-04-09T04:09:53.344Z,52.65
2024-04-09T04:10:53.406Z,51.96
2024-04-09T04:11:53.405Z,51.97
2024-04-09T04:12:53.469Z,50.14
2024-04-09T04:13:53.478Z,53.10
2024-04-09T04:14:53.528Z,54.29
2024-04-09T04:15:53.572Z,51.59
2024-04-09T04:16:53.689Z,53.25
2024-04-09T04:17:53.738Z,51.62
2024-04-09T04:18:53.765Z,51.77
2024-04-09T04:19:53.774Z,51.77
2024-04-09T04:20:53.771Z,51.92
2024-04-09T04:21:53.852Z,52.02
2024-04-09T04:22:53.891Z,51.50
2024-04-09T04:23:53.946Z,50.96
2024-04-09T04:24:53.946Z,51.63
2024-04-09T04:25:54.009Z,51.30
2024-04-09T04:26:54.055Z,52.01
2024-04-09T04:27:54.136Z,50.80
2024-04-09T04:28:54.137Z,55.30
2024-04-09T04:29:54.219Z,50.00
2024-04-09T04:30:54.211Z,54.48
2024-04-09T04:31:54.280Z,54.83
2024-04-09T04:33:01.860Z,50.00
2024-04-09T04:34:01.740Z,50.00
2024-04-09T04:35:01.549Z,50.00
2024-04-09T04:36:01.610Z,50.00
2024-04-09T04:37:01.563Z,50.00
2024-04-09T04:38:01.567Z,54.66
2024-04-09T04:39:01.622Z,51.44
2024-04-09T04:40:01.583Z,51.20
2024-04-09T04:41:01.577Z,51.37
2024-04-09T04:42:01.587Z,50.74
2024-04-09T04:43:01.550Z,52.29
2024-04-09T04:44:01.542Z,51.11
2024-04-09T04:45:01.698Z,50.72
2024-04-09T04:46:01.564Z,50.64
2024-04-09T04:47:01.570Z,51.76
2024-04-09T04:48:01.851Z,51.43
2024-04-09T04:49:02.394Z,53.62
2024-04-09T04:50:01.601Z,51.73
2024-04-09T04:51:01.627Z,52.15
2024-04-09T04:52:01.621Z,51.52
2024-04-09T04:53:01.607Z,53.38
2024-04-09T04:54:01.641Z,50.99
2024-04-09T04:55:01.580Z,51.04
2024-04-09T04:56:01.660Z,50.79
2024-04-09T04:57:01.647Z,51.96
2024-04-09T04:58:01.650Z,53.57
2024-04-09T04:59:01.684Z,52.21
2024-04-09T05:00:01.728Z,52.70
2024-04-09T05:01:01.961Z,50.65
2024-04-09T05:02:01.885Z,53.32
2024-04-09T05:03:02.074Z,51.83
2024-04-09T05:04:02.124Z,51.03
2024-04-09T05:05:01.954Z,52.92
2024-04-09T05:06:02.018Z,50.90
2024-04-09T05:07:01.966Z,51.56
2024-04-09T05:08:01.981Z,53.45
2024-04-09T05:09:01.981Z,52.22
2024-04-09T05:10:01.984Z,50.37
2024-04-09T05:11:02.043Z,53.88
2024-04-09T05:12:02.015Z,52.46
2024-04-09T05:13:01.969Z,51.45
2024-04-09T05:14:02.028Z,52.75
2024-04-09T05:15:02.013Z,50.52
2024-04-09T05:16:02.002Z,51.17
2024-04-09T05:17:01.985Z,51.38
2024-04-09T05:18:02.160Z,53.02
2024-04-09T05:19:02.268Z,51.16
2024-04-09T05:20:01.990Z,50.38
2024-04-09T05:21:02.085Z,52.02
2024-04-09T05:22:02.030Z,51.79
2024-04-09T05:23:02.003Z,51.28
2024-04-09T05:24:02.068Z,51.59
2024-04-09T05:25:01.982Z,51.90
2024-04-09T05:26:02.018Z,53.65
2024-04-09T05:27:02.029Z,51.52
2024-04-09T05:28:02.069Z,53.31
2024-04-09T05:29:02.082Z,52.01
2024-04-09T05:30:02.172Z,51.31
2024-04-09T05:31:02.153Z,51.75
2024-04-09T05:32:02.201Z,52.93
2024-04-09T05:33:02.358Z,50.58
2024-04-09T05:34:02.354Z,51.61
2024-04-09T05:35:02.256Z,50.00
2024-04-09T05:36:02.349Z,53.47
2024-04-09T05:37:02.342Z,48.73
2024-04-09T05:38:02.391Z,50.54
2024-04-09T05:39:02.505Z,47.96
2024-04-09T05:40:02.473Z,29.31
2024-04-09T05:41:02.514Z,21.93
2024-04-09T05:42:02.588Z,16.29
2024-04-09T05:43:02.606Z,19.94
2024-04-09T05:44:02.628Z,20.37
2024-04-09T05:45:02.750Z,20.89
2024-04-09T05:46:02.770Z,23.76
2024-04-09T05:47:02.817Z,35.75
2024-04-09T05:48:03.062Z,50.52
2024-04-09T05:49:03.099Z,52.87
2024-04-09T05:50:02.991Z,46.75
2024-04-09T05:51:03.025Z,50.00
2024-04-09T05:52:03.133Z,48.12
2024-04-09T05:53:03.139Z,49.83
2024-04-09T05:54:03.281Z,47.63
2024-04-09T05:55:03.289Z,51.84
2024-04-09T05:56:03.325Z,51.81
2024-04-09T05:57:03.439Z,53.87
2024-04-09T05:58:03.428Z,55.41
2024-04-09T05:59:03.512Z,62.06
2024-04-09T06:00:03.632Z,63.03
2024-04-09T06:01:03.803Z,70.23
2024-04-09T06:02:03.671Z,77.95
2024-04-09T06:03:03.800Z,91.35
2024-04-09T06:04:03.794Z,98.60
2024-04-09T06:05:03.771Z,116.69
2024-04-09T06:06:03.905Z,124.64
2024-04-09T06:07:04.042Z,136.32
2024-04-09T06:08:04.106Z,148.45
2024-04-09T06:09:04.353Z,159.68
2024-04-09T06:10:04.346Z,170.80
2024-04-09T06:11:04.534Z,181.07
2024-04-09T06:12:04.604Z,188.18
2024-04-09T06:13:04.693Z,193.82
2024-04-09T06:14:04.814Z,200.00
2024-04-09T06:15:05.003Z,198.72
2024-04-09T06:16:05.052Z,200.00
2024-04-09T06:17:05.265Z,199.78
2024-04-09T06:18:05.391Z,200.00
2024-04-09T06:19:05.600Z,199.47
2024-04-09T06:20:05.543Z,200.52
2024-04-09T06:21:05.721Z,200.00
2024-04-09T06:22:05.821Z,198.70
2024-04-09T06:23:05.939Z,196.73
2024-04-09T06:24:06.083Z,198.39
2024-04-09T06:25:06.191Z,194.47
2024-04-09T06:26:06.271Z,194.85
2024-04-09T06:27:06.396Z,190.70
2024-04-09T06:28:06.544Z,187.59
2024-04-09T06:29:06.632Z,189.47
2024-04-09T06:30:06.782Z,188.82
2024-04-09T06:31:06.872Z,191.32
2024-04-09T06:32:07.080Z,191.01
2024-04-09T06:33:07.235Z,190.08
2024-04-09T06:34:07.324Z,189.65
2024-04-09T06:35:07.372Z,191.86
2024-04-09T06:36:15.814Z,192.77
2024-04-09T06:37:08.625Z,192.92
2024-04-09T06:38:07.477Z,193.84
2024-04-09T06:39:07.607Z,196.89
2024-04-09T06:40:07.490Z,200.02
2024-04-09T06:41:07.481Z,212.25
2024-04-09T06:42:07.540Z,202.46
2024-04-09T06:43:07.488Z,198.16
2024-04-09T06:44:07.490Z,200.00
2024-04-09T06:45:07.564Z,199.18
2024-04-09T06:46:07.658Z,199.11
2024-04-09T06:47:07.818Z,186.81
2024-04-09T06:48:08.082Z,182.02
2024-04-09T06:49:08.105Z,167.55
2024-04-09T06:50:08.147Z,161.37
2024-04-09T06:51:08.286Z,146.14
2024-04-09T06:52:08.354Z,132.21
2024-04-09T06:53:08.425Z,121.21
2024-04-09T06:54:08.534Z,114.60
2024-04-09T06:55:08.522Z,111.15
2024-04-09T06:56:08.576Z,109.11
2024-04-09T06:57:08.714Z,108.12
2024-04-09T06:58:08.724Z,114.88
2024-04-09T06:59:08.831Z,122.97
2024-04-09T07:00:09.008Z,128.51
2024-04-09T07:01:09.049Z,134.34
2024-04-09T07:02:09.230Z,138.13
2024-04-09T07:03:09.338Z,142.80
2024-04-09T07:04:09.564Z,148.62
2024-04-09T07:05:09.489Z,150.19
2024-04-09T07:06:09.660Z,151.91
2024-04-09T07:07:09.739Z,153.75
2024-04-09T07:08:09.870Z,158.56
2024-04-09T07:09:10.060Z,162.34
2024-04-09T07:10:10.137Z,163.46
2024-04-09T07:11:10.276Z,168.44
2024-04-09T07:12:10.391Z,170.52
2024-04-09T07:13:10.469Z,175.17
2024-04-09T07:14:10.568Z,171.39
2024-04-09T07:15:10.739Z,173.88
2024-04-09T07:16:10.825Z,179.79
2024-04-09T07:17:11.052Z,185.32
2024-04-09T07:18:11.134Z,187.82
2024-04-09T07:19:11.195Z,195.98
2024-04-09T07:20:11.954Z,197.91
2024-04-09T07:21:11.358Z,199.71
2024-04-09T07:22:11.335Z,199.92
2024-04-09T07:23:13.511Z,200.77
2024-04-09T07:24:11.549Z,200.00
2024-04-09T07:25:11.509Z,201.36
2024-04-09T07:26:11.531Z,201.17
2024-04-09T07:27:11.622Z,198.35
2024-04-09T07:28:11.703Z,201.38
2024-04-09T07:29:14.421Z,198.82
2024-04-09T07:30:11.782Z,200.00
2024-04-09T07:31:12.061Z,200.26
2024-04-09T07:32:11.770Z,197.25
2024-04-09T07:33:11.800Z,189.95
2024-04-09T07:34:11.808Z,190.02
2024-04-09T07:35:11.795Z,188.67
2024-04-09T07:36:11.848Z,184.30
2024-04-09T07:37:11.799Z,173.89
2024-04-09T07:38:11.800Z,167.40
2024-04-09T07:39:11.835Z,168.04
2024-04-09T07:40:11.848Z,165.23
2024-04-09T07:41:11.772Z,166.60
2024-04-09T07:42:11.836Z,166.91
2024-04-09T07:43:11.802Z,163.85
2024-04-09T07:44:11.801Z,165.56
2024-04-09T07:45:11.873Z,166.80
2024-04-09T07:46:11.805Z,169.53
2024-04-09T07:47:11.887Z,172.19
2024-04-09T07:48:11.920Z,172.88
2024-04-09T07:49:12.003Z,174.57
2024-04-09T07:50:11.891Z,178.89
2024-04-09T07:51:11.891Z,183.40
2024-04-09T07:52:11.796Z,187.84
2024-04-09T07:53:11.812Z,188.26
2024-04-09T07:54:11.859Z,192.16
2024-04-09T07:55:11.843Z,195.46
2024-04-09T07:56:11.842Z,196.32
2024-04-09T07:57:11.847Z,200.00
2024-04-09T07:58:12.015Z,200.57
2024-04-09T07:59:11.848Z,200.70
2024-04-09T08:00:11.853Z,199.74
2024-04-09T08:01:11.914Z,199.33
2024-04-09T08:02:13.249Z,198.44
2024-04-09T08:03:11.898Z,200.00
2024-04-09T08:04:12.229Z,199.94
2024-04-09T08:05:12.271Z,200.07
2024-04-09T08:06:12.334Z,199.69
2024-04-09T08:07:11.989Z,198.53
2024-04-09T08:08:11.998Z,200.30
2024-04-09T08:09:12.111Z,199.06
2024-04-09T08:10:12.152Z,200.00
2024-04-09T08:11:12.293Z,200.00
2024-04-09T08:12:12.268Z,199.62
2024-04-09T08:13:12.331Z,199.75
2024-04-09T08:14:12.165Z,199.81
2024-04-09T08:15:12.259Z,199.65
2024-04-09T08:16:12.248Z,199.61
2024-04-09T08:17:12.280Z,199.67
2024-04-09T08:18:12.509Z,200.00
2024-04-09T08:19:12.630Z,200.00
2024-04-09T08:20:12.502Z,199.60
2024-04-09T08:21:12.502Z,199.75
2024-04-09T08:22:12.498Z,200.00
2024-04-09T08:23:12.610Z,200.09
2024-04-09T08:24:12.653Z,200.00
2024-04-09T08:25:12.649Z,199.74
2024-04-09T08:26:12.713Z,199.55
2024-04-09T08:27:12.791Z,200.00
2024-04-09T08:28:12.834Z,199.39
2024-04-09T08:29:12.874Z,199.67
2024-04-09T08:30:12.914Z,200.00
2024-04-09T08:31:13.149Z,199.55
2024-04-09T08:32:13.052Z,199.75
2024-04-09T08:33:13.141Z,199.11
2024-04-09T08:34:16.284Z,198.19
2024-04-09T08:35:13.153Z,197.30
2024-04-09T08:36:13.194Z,195.70
2024-04-09T08:37:13.246Z,195.38
2024-04-09T08:38:13.105Z,192.68
2024-04-09T08:39:13.242Z,190.66
2024-04-09T08:40:13.176Z,188.93
2024-04-09T08:41:13.133Z,187.04
2024-04-09T08:42:13.258Z,186.47
2024-04-09T08:43:13.266Z,184.38
2024-04-09T08:44:13.164Z,182.93
2024-04-09T08:45:13.199Z,178.04
2024-04-09T08:46:13.182Z,177.61
2024-04-09T08:47:13.328Z,174.40
2024-04-09T08:48:13.297Z,174.82
2024-04-09T08:49:13.304Z,169.89
2024-04-09T08:50:13.427Z,169.22
2024-04-09T08:51:14.143Z,168.46
2024-04-09T08:52:13.304Z,167.02
2024-04-09T08:53:13.162Z,165.95
2024-04-09T08:54:13.176Z,164.40
2024-04-09T08:55:13.158Z,161.84
2024-04-09T08:56:13.151Z,160.87
2024-04-09T08:57:13.241Z,159.30
2024-04-09T08:58:13.240Z,158.04
2024-04-09T08:59:13.172Z,156.38
2024-04-09T09:00:13.214Z,156.57
2024-04-09T09:01:13.297Z,154.93
2024-04-09T09:02:13.200Z,153.59
2024-04-09T09:03:13.265Z,153.37
2024-04-09T09:04:13.383Z,152.58
2024-04-09T09:05:13.276Z,149.00
2024-04-09T09:06:13.249Z,147.94
2024-04-09T09:07:13.299Z,146.92
2024-04-09T09:08:13.318Z,147.30
2024-04-09T09:09:13.462Z,146.74
2024-04-09T09:10:13.436Z,142.69
2024-04-09T09:11:13.547Z,143.10
2024-04-09T09:12:13.517Z,142.35
2024-04-09T09:13:13.541Z,142.29
2024-04-09T09:14:13.616Z,142.09
2024-04-09T09:15:13.703Z,138.36
2024-04-09T09:16:13.718Z,138.59
2024-04-09T09:17:13.818Z,135.16
2024-04-09T09:18:13.865Z,130.54
2024-04-09T09:19:13.897Z,128.07
2024-04-09T09:20:13.893Z,125.18
2024-04-09T09:21:13.953Z,121.06
2024-04-09T09:22:13.977Z,117.90
2024-04-09T09:23:14.027Z,115.14
2024-04-09T09:24:14.107Z,111.28
2024-04-09T09:25:14.093Z,109.33
2024-04-09T09:26:14.160Z,108.83
2024-04-09T09:27:14.274Z,106.76
2024-04-09T09:28:44.885Z,50.00
2024-04-09T09:29:44.857Z,50.00
2024-04-09T09:30:45.572Z,50.00
2024-04-09T09:31:45.002Z,50.00
2024-04-09T09:32:44.931Z,50.00
2024-04-09T09:33:44.913Z,46.96
2024-04-09T09:34:44.876Z,50.00
2024-04-09T09:35:44.851Z,50.97
2024-04-09T09:36:44.919Z,49.00
2024-04-09T09:37:44.893Z,50.00
2024-04-09T09:38:44.914Z,52.44
2024-04-09T09:39:44.983Z,50.00
2024-04-09T09:40:44.903Z,49.18
2024-04-09T09:41:44.920Z,47.28
2024-04-09T09:42:45.020Z,52.84
2024-04-09T09:43:44.905Z,54.19
2024-04-09T09:44:44.907Z,52.20
2024-04-09T09:45:44.986Z,52.25
2024-04-09T09:46:44.896Z,52.37
2024-04-09T09:47:45.031Z,45.75
2024-04-09T09:48:45.037Z,49.00
2024-04-09T09:49:44.929Z,43.98
2024-04-09T09:50:44.895Z,61.99
2024-04-09T09:51:45.033Z,65.88
2024-04-09T09:52:44.943Z,68.32
2024-04-09T09:53:45.128Z,74.87
2024-04-09T09:54:45.028Z,70.57
2024-04-09T09:55:45.012Z,75.31
2024-04-09T09:56:44.994Z,69.51
2024-04-09T09:57:45.023Z,76.95
2024-04-09T09:58:45.018Z,79.39
2024-04-09T09:59:45.087Z,81.09
2024-04-09T10:00:45.242Z,80.47
2024-04-09T10:01:45.220Z,77.51
2024-04-09T10:03:45.358Z,75.89
2024-04-09T10:04:45.413Z,78.12
2024-04-09T10:05:45.235Z,64.46
2024-04-09T10:06:45.329Z,56.08
2024-04-09T10:07:45.243Z,56.84
2024-04-09T10:08:45.228Z,55.12
2024-04-09T10:09:45.241Z,52.24
2024-04-09T10:10:45.240Z,50.26
2024-04-09T10:11:45.298Z,54.22
2024-04-09T10:12:45.428Z,53.75
2024-04-09T10:13:45.277Z,49.41
2024-04-09T10:14:45.332Z,55.36
2024-04-09T10:15:45.567Z,62.73
2024-04-09T10:16:45.310Z,62.55
2024-04-09T10:17:46.573Z,68.11
2024-04-09T10:18:45.562Z,74.22
2024-04-09T10:19:45.410Z,80.86
2024-04-09T10:20:45.298Z,85.09
2024-04-09T10:21:45.372Z,89.00
2024-04-09T10:22:45.353Z,95.46
2024-04-09T10:23:45.318Z,99.45
2024-04-09T10:24:45.365Z,97.51
2024-04-09T10:25:45.320Z,97.34
2024-04-09T10:26:45.331Z,95.40
2024-04-09T10:27:45.515Z,93.81
2024-04-09T10:28:45.387Z,91.16
2024-04-09T10:29:45.422Z,91.29
2024-04-09T10:30:45.522Z,84.29
2024-04-09T10:31:45.463Z,87.14
2024-04-09T10:32:45.663Z,80.93
2024-04-09T10:33:45.720Z,77.18
2024-04-09T10:34:45.705Z,81.70
2024-04-09T10:35:45.645Z,82.29
2024-04-09T10:36:45.778Z,87.38
2024-04-09T10:37:45.789Z,93.29
2024-04-09T10:38:46.082Z,96.38
2024-04-09T10:39:46.033Z,104.80
2024-04-09T10:40:45.977Z,105.94
2024-04-09T10:42:42.814Z,50.00
2024-04-09T10:43:42.706Z,50.00
2024-04-09T10:44:42.610Z,50.00
2024-04-09T10:45:52.358Z,50.00
2024-04-09T10:46:43.696Z,50.00
2024-04-09T10:47:42.748Z,50.00
2024-04-09T10:48:43.214Z,50.00
2024-04-09T10:49:42.670Z,50.00
2024-04-09T10:50:42.677Z,50.00
2024-04-09T10:51:42.705Z,52.35
2024-04-09T10:52:42.637Z,52.26
2024-04-09T10:53:42.658Z,51.25
2024-04-09T10:54:42.807Z,50.35
2024-04-09T10:55:42.682Z,52.19
2024-04-09T10:56:42.705Z,52.39
2024-04-09T10:57:42.826Z,53.48
2024-04-09T10:58:42.766Z,51.85
2024-04-09T10:59:42.846Z,55.27
2024-04-09T11:00:43.006Z,58.10
2024-04-09T11:01:42.967Z,57.07
2024-04-09T11:02:42.954Z,58.28
2024-04-09T11:03:43.182Z,60.28
2024-04-09T11:04:43.133Z,63.07
2024-04-09T11:05:42.891Z,64.73
2024-04-09T11:06:42.998Z,62.84
2024-04-09T11:07:42.910Z,66.13
2024-04-09T11:08:42.932Z,66.62
2024-04-09T11:09:43.101Z,67.57
2024-04-09T11:10:43.100Z,68.31
2024-04-09T11:11:43.033Z,66.94
2024-04-09T11:12:43.100Z,72.27
2024-04-09T11:13:43.103Z,68.52
2024-04-09T11:14:43.226Z,69.01
2024-04-09T11:15:43.203Z,71.33
2024-04-09T11:16:43.208Z,73.64
2024-04-09T11:17:43.365Z,73.48
2024-04-09T11:18:43.387Z,70.22
2024-04-09T11:19:43.639Z,67.85
2024-04-09T11:20:43.412Z,71.15
2024-04-09T11:21:43.543Z,71.47
2024-04-09T11:22:43.522Z,71.49
2024-04-09T11:23:43.534Z,69.51
2024-04-09T11:24:43.747Z,67.27
2024-04-09T11:25:43.667Z,68.28
2024-04-09T11:26:43.673Z,63.79
2024-04-09T11:27:43.822Z,61.71
2024-04-09T11:28:43.836Z,56.14
2024-04-09T11:29:43.869Z,58.28
2024-04-09T11:30:44.174Z,56.13
2024-04-09T11:31:43.971Z,50.56
2024-04-09T11:32:44.038Z,50.74
2024-04-09T11:33:44.231Z,50.64
2024-04-09T11:34:44.247Z,51.13
2024-04-09T11:35:44.147Z,51.12
2024-04-09T11:36:44.199Z,52.60
2024-04-09T11:37:44.260Z,50.00
2024-04-09T11:38:44.333Z,50.65
2024-04-09T11:39:44.367Z,50.00
2024-04-09T11:40:44.421Z,44.15
2024-04-09T11:41:44.505Z,50.79
2024-04-09T11:42:44.548Z,50.00
2024-04-09T11:43:44.520Z,50.00
2024-04-09T11:44:44.614Z,50.00
2024-04-09T11:45:44.717Z,52.72
2024-04-09T11:46:44.697Z,55.87
2024-04-09T11:47:44.846Z,54.17
2024-04-09T11:48:44.894Z,55.48
2024-04-09T11:49:45.364Z,56.04
2024-04-09T11:50:44.825Z,55.40
2024-04-09T11:51:44.985Z,55.32
2024-04-09T11:52:44.917Z,50.00
2024-04-09T11:53:45.499Z,50.80
2024-04-09T11:54:45.060Z,53.90
2024-04-09T11:55:45.046Z,60.86
2024-04-09T11:56:45.097Z,68.34
2024-04-09T11:57:45.237Z,74.35
2024-04-09T11:58:45.118Z,84.45
2024-04-09T11:59:45.187Z,95.66
2024-04-09T12:00:45.380Z,103.60
2024-04-09T12:01:45.361Z,112.61
2024-04-09T12:02:45.280Z,118.68
2024-04-09T12:03:45.471Z,124.38
2024-04-09T12:04:45.558Z,126.07
2024-04-09T12:05:45.522Z,127.78
2024-04-09T12:06:46.340Z,131.50
2024-04-09T12:07:45.593Z,128.35
2024-04-09T12:08:45.493Z,126.75
2024-04-09T12:09:45.680Z,133.63
2024-04-09T12:10:45.713Z,138.81
2024-04-09T12:11:45.676Z,143.82
2024-04-09T12:12:45.804Z,145.25
2024-04-09T12:13:45.760Z,148.96
2024-04-09T12:14:45.694Z,147.11
2024-04-09T12:15:45.815Z,146.57
2024-04-09T12:16:45.757Z,149.88
2024-04-09T12:17:45.874Z,151.20
2024-04-09T12:18:45.999Z,150.45
2024-04-09T12:19:46.116Z,142.17
2024-04-09T12:20:45.983Z,130.38
2024-04-09T12:21:46.139Z,123.35
2024-04-09T12:22:46.093Z,114.86
2024-04-09T12:23:46.108Z,108.67
2024-04-09T12:24:46.224Z,97.29
2024-04-09T12:25:46.231Z,89.19
2024-04-09T12:26:46.290Z,88.11
2024-04-09T12:27:46.534Z,79.55
2024-04-09T12:28:46.397Z,74.31
2024-04-09T12:29:46.470Z,63.65
2024-04-09T12:30:46.584Z,65.47
2024-04-09T12:31:46.577Z,63.93
2024-04-09T12:32:46.761Z,63.33
2024-04-09T12:33:46.932Z,59.24
2024-04-09T12:34:46.911Z,52.74
2024-04-09T12:35:46.799Z,50.13
2024-04-09T12:36:47.002Z,53.42
2024-04-09T12:37:46.926Z,51.47
2024-04-09T12:38:46.996Z,50.26
2024-04-09T12:39:47.144Z,50.31
2024-04-09T12:40:47.105Z,50.77
2024-04-09T12:41:47.202Z,53.83
2024-04-09T12:42:47.571Z,50.90
2024-04-09T12:43:47.269Z,52.68
2024-04-09T12:44:47.350Z,52.74
2024-04-09T12:45:47.533Z,55.63
2024-04-09T12:46:47.482Z,57.88
2024-04-09T12:47:47.632Z,57.96
2024-04-09T12:49:00.457Z,61.05